Time;durP1;ratioP1;P1;durP2;ratioP2;P2;SDS_P1;SDS_P2;PMS_P1;PMS_P2;Temp;Humidity;BMP_temperature;BMP_pressure;BME280_temperature;BME280_humidity;BME280_pressure;Samples;Min_cycle;Max_cycle;Signal;HPM_P1;HPM_P2
2022/04/27 00:01:15;;;;;;;;;18.00;17.00;;;;;;;;5029294;28;51194;-54
2022/04/27 00:03:40;;;;;;;;;10.25;9.00;;;;;;;;5031744;28;52950;-51
2022/04/27 00:06:06;;;;;;;;;13.25;13.00;;;;;;;;5030809;28;51108;-50
2022/04/27 00:08:31;;;;;;;;;13.25;12.00;;;;;;;;5032697;28;51271;-51
2022/04/27 00:10:56;;;;;;;;;16.00;13.75;;;;;;;;5032990;28;51295;-50
2022/04/27 00:13:21;;;;;;;;;15.50;14.50;;;;;;;;5032499;28;51473;-52
2022/04/27 00:15:47;;;;;;;;;11.50;10.25;;;;;;;;5028573;28;51115;-54
2022/04/27 00:18:12;;;;;;;;;14.50;14.25;;;;;;;;5032730;28;51198;-53
2022/04/27 00:20:37;;;;;;;;;14.75;13.75;;;;;;;;5021906;28;51456;-50
2022/04/27 00:23:02;;;;;;;;;14.25;14.25;;;;;;;;5030615;28;51864;-49
2022/04/27 00:25:28;;;;;;;;;11.25;11.25;;;;;;;;5031751;28;51187;-51
2022/04/27 00:27:53;;;;;;;;;15.75;14.75;;;;;;;;5032222;28;50980;-56
2022/04/27 00:30:18;;;;;;;;;14.00;13.50;;;;;;;;5031017;28;51263;-52
2022/04/27 00:32:44;;;;;;;;;15.75;15.25;;;;;;;;5030683;28;51821;-50
2022/04/27 00:35:09;;;;;;;;;16.00;15.25;;;;;;;;5031980;28;51166;-49
2022/04/27 00:37:34;;;;;;;;;13.75;13.00;;;;;;;;5030770;28;51109;-50
2022/04/27 00:39:59;;;;;;;;;15.50;15.00;;;;;;;;5031434;28;51321;-50
2022/04/27 00:42:25;;;;;;;;;14.25;12.25;;;;;;;;5030776;28;53837;-49
2022/04/27 00:44:50;;;;;;;;;17.75;17.00;;;;;;;;5030053;28;51123;-50
2022/04/27 00:47:17;;;;;;;;;15.75;15.00;;;;;;;;5031284;28;51155;-50
2022/04/27 00:49:43;;;;;;;;;11.25;11.25;;;;;;;;5036990;28;51152;-50
2022/04/27 00:52:13;;;;;;;;;17.75;16.00;;;;;;;;5032917;28;51983;-54
2022/04/27 00:54:41;;;;;;;;;11.00;10.50;;;;;;;;5032281;28;51099;-50
2022/04/27 00:57:07;;;;;;;;;15.00;14.50;;;;;;;;5033243;28;51047;-53
2022/04/27 00:59:32;;;;;;;;;13.25;12.25;;;;;;;;5032702;28;51383;-50
2022/04/27 01:01:58;;;;;;;;;12.75;10.75;;;;;;;;5029328;28;51891;-50
2022/04/27 01:04:23;;;;;;;;;15.75;14.00;;;;;;;;5025555;28;51205;-51
2022/04/27 01:06:48;;;;;;;;;14.50;13.75;;;;;;;;5030998;28;51037;-52
2022/04/27 01:09:14;;;;;;;;;15.50;14.50;;;;;;;;5031818;28;51002;-50
2022/04/27 01:11:40;;;;;;;;;14.50;13.50;;;;;;;;5030882;28;51330;-50
2022/04/27 01:14:05;;;;;;;;;15.00;15.00;;;;;;;;5032948;28;50931;-53
2022/04/27 01:16:30;;;;;;;;;14.50;14.50;;;;;;;;5020649;28;51248;-50
2022/04/27 01:18:55;;;;;;;;;17.00;15.00;;;;;;;;5031163;28;51308;-50
2022/04/27 01:21:22;;;;;;;;;15.50;14.50;;;;;;;;5025539;28;53933;-50
2022/04/27 01:23:47;;;;;;;;;16.50;15.50;;;;;;;;5032863;28;51155;-51
2022/04/27 01:26:12;;;;;;;;;16.50;16.00;;;;;;;;5026349;28;51324;-51
2022/04/27 01:28:38;;;;;;;;;15.75;15.50;;;;;;;;5032169;28;51279;-50
2022/04/27 01:31:05;;;;;;;;;11.75;11.25;;;;;;;;5029835;28;52311;-49
2022/04/27 01:33:31;;;;;;;;;14.75;13.00;;;;;;;;5021130;28;51025;-54
2022/04/27 01:35:58;;;;;;;;;16.50;16.25;;;;;;;;5028973;28;51069;-50
2022/04/27 01:38:23;;;;;;;;;16.25;15.00;;;;;;;;5031436;28;51025;-51
2022/04/27 01:40:52;;;;;;;;;14.00;14.00;;;;;;;;5028866;28;51896;-53
2022/04/27 01:43:19;;;;;;;;;16.00;15.25;;;;;;;;5030266;28;51022;-50
2022/04/27 01:45:45;;;;;;;;;17.75;16.50;;;;;;;;5029735;28;51134;-52
2022/04/27 01:48:11;;;;;;;;;17.75;16.00;;;;;;;;5031941;28;51478;-51
2022/04/27 01:50:36;;;;;;;;;17.25;15.00;;;;;;;;5036323;28;51311;-50
2022/04/27 01:55:45;;;;;;;;;16.50;15.00;;;;;;;;5023478;28;51169;-49
2022/04/27 01:58:10;;;;;;;;;14.75;14.75;;;;;;;;5030768;28;51258;-50
2022/04/27 02:00:35;;;;;;;;;16.25;16.25;;;;;;;;5031723;28;51120;-50
2022/04/27 02:03:00;;;;;;;;;13.00;9.50;;;;;;;;5029867;28;51269;-49
2022/04/27 02:05:26;;;;;;;;;17.75;16.00;;;;;;;;5026331;28;51139;-48
2022/04/27 02:07:51;;;;;;;;;18.50;17.75;;;;;;;;5029423;28;51085;-52
2022/04/27 02:10:17;;;;;;;;;18.00;17.50;;;;;;;;5031823;28;51136;-50
2022/04/27 02:12:42;;;;;;;;;16.00;15.75;;;;;;;;5030296;28;50940;-52
2022/04/27 02:15:09;;;;;;;;;13.25;13.00;;;;;;;;5029749;28;51257;-50
2022/04/27 02:17:35;;;;;;;;;19.75;16.75;;;;;;;;5030819;28;51205;-50
2022/04/27 02:20:00;;;;;;;;;18.50;16.50;;;;;;;;5032554;28;51829;-49
2022/04/27 02:22:25;;;;;;;;;16.25;15.00;;;;;;;;5031123;28;51006;-53
2022/04/27 02:24:51;;;;;;;;;17.75;17.50;;;;;;;;5028361;28;51153;-53
2022/04/27 02:27:17;;;;;;;;;17.25;16.25;;;;;;;;5021667;28;51374;-50
2022/04/27 02:29:42;;;;;;;;;16.75;16.75;;;;;;;;5029681;28;52710;-50
2022/04/27 02:32:07;;;;;;;;;18.75;18.75;;;;;;;;5025307;28;51090;-52
2022/04/27 02:34:32;;;;;;;;;21.00;20.00;;;;;;;;5031499;28;50919;-51
2022/04/27 02:36:58;;;;;;;;;21.75;19.25;;;;;;;;5023289;28;51150;-50
2022/04/27 02:39:23;;;;;;;;;22.00;19.75;;;;;;;;5034509;28;51730;-50
2022/04/27 02:41:48;;;;;;;;;22.00;20.50;;;;;;;;5029097;28;51068;-51
2022/04/27 02:44:13;;;;;;;;;20.25;19.25;;;;;;;;5033862;28;51065;-50
2022/04/27 02:46:39;;;;;;;;;23.25;20.50;;;;;;;;5033402;28;51142;-52
2022/04/27 02:51:54;;;;;;;;;22.25;19.50;;;;;;;;5032301;28;51168;-50
2022/04/27 02:54:21;;;;;;;;;17.75;15.75;;;;;;;;5033534;28;51033;-51
2022/04/27 02:56:46;;;;;;;;;22.50;20.50;;;;;;;;5032149;28;51141;-51
2022/04/27 02:59:12;;;;;;;;;22.75;22.00;;;;;;;;5033093;28;51158;-51
2022/04/27 03:01:38;;;;;;;;;21.00;18.50;;;;;;;;5025831;28;51124;-51
2022/04/27 03:04:04;;;;;;;;;24.25;20.00;;;;;;;;5033691;28;50962;-50
2022/04/27 03:06:29;;;;;;;;;21.50;21.00;;;;;;;;5028325;28;51214;-49
2022/04/27 03:08:54;;;;;;;;;23.75;22.00;;;;;;;;5033693;28;52285;-51
2022/04/27 03:11:19;;;;;;;;;23.00;21.00;;;;;;;;5030562;28;51163;-52
2022/04/27 03:13:44;;;;;;;;;17.50;17.50;;;;;;;;5033623;28;51060;-50
2022/04/27 03:16:10;;;;;;;;;24.25;21.75;;;;;;;;5031392;28;51151;-51
2022/04/27 03:18:35;;;;;;;;;24.25;21.75;;;;;;;;5034247;28;52131;-56
2022/04/27 03:21:00;;;;;;;;;19.00;19.00;;;;;;;;5030939;28;51084;-51
2022/04/27 03:23:26;;;;;;;;;25.50;21.75;;;;;;;;5034454;28;50878;-50
2022/04/27 03:25:51;;;;;;;;;23.50;22.25;;;;;;;;5032092;28;51131;-50
2022/04/27 03:28:16;;;;;;;;;26.25;23.50;;;;;;;;5033268;28;52958;-51
2022/04/27 03:30:41;;;;;;;;;24.50;24.25;;;;;;;;5032291;28;51222;-50
2022/04/27 03:33:07;;;;;;;;;23.00;22.50;;;;;;;;5033139;28;51131;-53
2022/04/27 03:35:32;;;;;;;;;22.25;21.00;;;;;;;;5032253;28;51203;-54
2022/04/27 03:37:58;;;;;;;;;24.75;23.00;;;;;;;;5033862;28;50957;-54
2022/04/27 03:40:24;;;;;;;;;27.00;24.50;;;;;;;;5033076;28;51017;-49
2022/04/27 03:42:49;;;;;;;;;25.50;24.00;;;;;;;;5033951;28;51019;-51
2022/04/27 03:45:14;;;;;;;;;23.50;21.50;;;;;;;;5031478;28;51415;-50
2022/04/27 03:47:39;;;;;;;;;26.25;23.00;;;;;;;;5022292;28;52207;-48
2022/04/27 03:50:05;;;;;;;;;27.75;25.00;;;;;;;;5030988;28;51122;-53
2022/04/27 03:52:30;;;;;;;;;26.75;23.25;;;;;;;;5033491;28;51089;-49
2022/04/27 03:55:00;;;;;;;;;27.00;23.25;;;;;;;;5032621;28;51093;-51
2022/04/27 03:57:25;;;;;;;;;29.50;27.75;;;;;;;;5031703;28;51857;-51
2022/04/27 03:59:50;;;;;;;;;33.50;30.00;;;;;;;;5032876;28;50995;-50
2022/04/27 04:02:16;;;;;;;;;26.50;24.50;;;;;;;;5033709;28;50956;-53
2022/04/27 04:04:41;;;;;;;;;31.50;25.50;;;;;;;;5032052;28;51119;-54
2022/04/27 04:07:06;;;;;;;;;27.25;25.25;;;;;;;;5016917;28;50994;-50
2022/04/27 04:09:31;;;;;;;;;24.00;23.75;;;;;;;;5032899;28;50931;-50
2022/04/27 04:11:56;;;;;;;;;29.25;25.25;;;;;;;;5033415;28;50805;-51
2022/04/27 04:14:22;;;;;;;;;33.50;28.00;;;;;;;;5030939;28;51231;-50
2022/04/27 04:16:47;;;;;;;;;21.50;19.00;;;;;;;;5031935;28;53906;-50
2022/04/27 04:19:12;;;;;;;;;28.00;26.00;;;;;;;;5032023;28;50984;-49
2022/04/27 04:21:38;;;;;;;;;29.75;28.25;;;;;;;;5031623;28;51217;-50
2022/04/27 04:24:04;;;;;;;;;29.50;26.25;;;;;;;;5031566;28;51278;-49
2022/04/27 04:29:13;;;;;;;;;29.50;24.50;;;;;;;;5033875;28;50894;-49
2022/04/27 04:31:38;;;;;;;;;35.50;29.50;;;;;;;;5026454;28;51002;-50
2022/04/27 04:34:04;;;;;;;;;30.50;29.00;;;;;;;;5025148;28;50990;-50
2022/04/27 04:36:30;;;;;;;;;37.00;32.25;;;;;;;;5024853;28;51868;-52
2022/04/27 04:38:55;;;;;;;;;31.00;29.00;;;;;;;;5027889;28;50956;-52
2022/04/27 04:41:20;;;;;;;;;38.75;36.00;;;;;;;;5026717;28;51200;-51
2022/04/27 04:43:45;;;;;;;;;33.75;30.75;;;;;;;;5032669;28;51352;-49
2022/04/27 04:46:11;;;;;;;;;34.00;30.75;;;;;;;;5026909;28;53037;-53
2022/04/27 04:48:36;;;;;;;;;37.75;36.50;;;;;;;;5033054;28;53897;-51
2022/04/27 04:51:01;;;;;;;;;40.00;34.75;;;;;;;;5039071;28;51227;-53
2022/04/27 04:53:26;;;;;;;;;26.75;25.75;;;;;;;;5038551;28;51177;-51
2022/04/27 04:55:52;;;;;;;;;33.00;30.75;;;;;;;;5030030;28;51699;-50
2022/04/27 04:58:17;;;;;;;;;37.25;35.25;;;;;;;;5031485;28;51007;-51
2022/04/27 05:00:43;;;;;;;;;34.75;32.75;;;;;;;;5030975;28;51050;-51
2022/04/27 05:03:08;;;;;;;;;40.25;35.00;;;;;;;;5030231;28;51145;-50
2022/04/27 05:05:34;;;;;;;;;35.25;32.75;;;;;;;;5029298;28;51726;-52
2022/04/27 05:07:59;;;;;;;;;36.00;34.75;;;;;;;;5021846;28;51190;-51
2022/04/27 05:10:25;;;;;;;;;32.75;30.25;;;;;;;;5031335;28;51378;-52
2022/04/27 05:12:50;;;;;;;;;31.50;28.50;;;;;;;;5031269;28;51080;-51
2022/04/27 05:15:15;;;;;;;;;26.25;26.25;;;;;;;;5032124;28;51756;-50
2022/04/27 05:17:41;;;;;;;;;40.75;37.00;;;;;;;;5032577;28;50967;-53
2022/04/27 05:20:07;;;;;;;;;35.75;34.75;;;;;;;;5031995;28;51162;-52
2022/04/27 05:22:38;;;;;;;;;35.00;30.00;;;;;;;;5031954;28;51269;-54
2022/04/27 05:25:03;;;;;;;;;38.25;36.00;;;;;;;;5031611;28;51942;-53
2022/04/27 05:27:28;;;;;;;;;32.75;30.75;;;;;;;;5024261;28;51754;-49
2022/04/27 05:32:41;;;;;;;;;33.75;30.75;;;;;;;;5028407;28;51187;-50
2022/04/27 05:35:06;;;;;;;;;34.00;32.75;;;;;;;;5016892;28;51742;-53
2022/04/27 05:37:32;;;;;;;;;33.00;31.25;;;;;;;;5021289;28;51025;-52
2022/04/27 05:39:57;;;;;;;;;37.25;33.75;;;;;;;;5026634;28;51558;-51
2022/04/27 05:42:22;;;;;;;;;35.25;32.00;;;;;;;;5015814;28;51057;-52
2022/04/27 05:44:48;;;;;;;;;34.25;32.25;;;;;;;;5029971;28;50922;-51
2022/04/27 05:47:13;;;;;;;;;30.00;26.50;;;;;;;;5019642;28;51343;-52
2022/04/27 05:49:38;;;;;;;;;38.00;34.00;;;;;;;;5031446;28;50947;-51
2022/04/27 05:52:04;;;;;;;;;35.25;31.75;;;;;;;;5036418;28;50984;-51
2022/04/27 05:54:29;;;;;;;;;33.25;32.50;;;;;;;;5031658;28;51742;-51
2022/04/27 05:56:54;;;;;;;;;39.00;36.00;;;;;;;;5022446;28;50966;-51
2022/04/27 05:59:20;;;;;;;;;38.25;33.25;;;;;;;;5030132;28;51104;-50
2022/04/27 06:01:46;;;;;;;;;33.25;32.00;;;;;;;;5024012;28;51207;-51
2022/04/27 06:04:12;;;;;;;;;36.00;33.00;;;;;;;;5027860;28;51652;-50
2022/04/27 06:06:37;;;;;;;;;38.75;35.50;;;;;;;;5029843;28;51196;-50
2022/04/27 06:09:03;;;;;;;;;35.50;32.25;;;;;;;;5028295;28;50927;-51
2022/04/27 06:11:28;;;;;;;;;41.75;34.25;;;;;;;;5031067;28;51287;-50
2022/04/27 06:13:53;;;;;;;;;40.00;34.50;;;;;;;;5030217;28;51881;-51
2022/04/27 06:16:19;;;;;;;;;37.00;32.75;;;;;;;;5030025;28;51233;-52
2022/04/27 06:18:45;;;;;;;;;41.00;32.25;;;;;;;;5029910;28;51000;-50
2022/04/27 06:21:10;;;;;;;;;44.00;36.00;;;;;;;;5029932;28;51272;-52
2022/04/27 06:23:37;;;;;;;;;31.25;30.00;;;;;;;;5026622;28;51671;-53
2022/04/27 06:26:03;;;;;;;;;37.00;32.75;;;;;;;;5028275;28;51187;-50
2022/04/27 06:28:28;;;;;;;;;41.25;33.75;;;;;;;;5031681;28;51069;-51
2022/04/27 06:30:53;;;;;;;;;41.00;35.00;;;;;;;;5019556;28;51084;-53
2022/04/27 06:33:19;;;;;;;;;36.00;32.00;;;;;;;;5026428;28;51234;-52
2022/04/27 06:35:44;;;;;;;;;35.50;32.50;;;;;;;;5028953;28;51014;-49
2022/04/27 06:38:09;;;;;;;;;35.75;33.50;;;;;;;;5031018;28;51283;-52
2022/04/27 06:40:34;;;;;;;;;35.00;33.50;;;;;;;;5020892;28;51291;-50
2022/04/27 06:42:59;;;;;;;;;35.50;31.25;;;;;;;;5030481;28;51908;-52
2022/04/27 06:45:27;;;;;;;;;38.75;35.25;;;;;;;;5023184;28;51219;-50
2022/04/27 06:47:53;;;;;;;;;37.75;32.50;;;;;;;;5029467;28;51053;-50
2022/04/27 06:50:18;;;;;;;;;34.75;32.25;;;;;;;;5030682;28;51115;-51
2022/04/27 06:52:46;;;;;;;;;32.50;30.00;;;;;;;;5029293;28;52132;-52
2022/04/27 06:55:11;;;;;;;;;30.00;28.75;;;;;;;;5028577;28;51171;-52
2022/04/27 06:57:36;;;;;;;;;34.25;31.00;;;;;;;;5020963;28;50896;-50
2022/04/27 07:00:02;;;;;;;;;36.75;32.50;;;;;;;;5029509;28;51085;-50
2022/04/27 07:02:28;;;;;;;;;36.25;33.25;;;;;;;;5029552;28;52559;-50
2022/04/27 07:04:59;;;;;;;;;35.50;31.75;;;;;;;;5030684;28;50914;-53
2022/04/27 07:07:24;;;;;;;;;31.75;30.00;;;;;;;;5030746;28;51147;-50
2022/04/27 07:09:50;;;;;;;;;38.50;34.00;;;;;;;;5028827;28;51041;-51
2022/04/27 07:12:15;;;;;;;;;33.75;31.25;;;;;;;;5030007;28;51921;-51
2022/04/27 07:14:40;;;;;;;;;33.75;31.75;;;;;;;;5030754;28;51316;-50
2022/04/27 07:17:05;;;;;;;;;35.00;32.25;;;;;;;;5029567;28;51502;-52
2022/04/27 07:19:30;;;;;;;;;29.75;29.00;;;;;;;;5018460;28;51174;-53
2022/04/27 07:21:56;;;;;;;;;32.75;29.25;;;;;;;;5021679;28;52107;-50
2022/04/27 07:24:21;;;;;;;;;31.25;29.50;;;;;;;;5027414;28;50974;-50
2022/04/27 07:26:46;;;;;;;;;32.50;30.50;;;;;;;;5030763;28;51171;-53
2022/04/27 07:29:11;;;;;;;;;36.00;33.25;;;;;;;;5032692;28;50843;-51
2022/04/27 07:31:37;;;;;;;;;33.75;32.25;;;;;;;;5032794;28;52699;-51
2022/04/27 07:34:02;;;;;;;;;30.75;29.25;;;;;;;;5031665;28;50891;-49
2022/04/27 07:36:27;;;;;;;;;38.25;32.75;;;;;;;;5030381;28;50973;-51
2022/04/27 07:38:52;;;;;;;;;35.50;32.00;;;;;;;;5031849;28;51025;-52
2022/04/27 07:41:18;;;;;;;;;30.00;29.75;;;;;;;;5028820;28;52649;-52
2022/04/27 07:43:43;;;;;;;;;33.00;31.75;;;;;;;;5031637;28;51171;-50
2022/04/27 07:46:09;;;;;;;;;31.50;30.00;;;;;;;;5029872;28;51168;-52
2022/04/27 07:48:35;;;;;;;;;37.00;32.25;;;;;;;;5031345;28;51105;-51
2022/04/27 07:51:00;;;;;;;;;33.00;30.00;;;;;;;;5034203;28;51192;-50
2022/04/27 07:53:26;;;;;;;;;34.25;31.00;;;;;;;;5031552;28;51057;-51
2022/04/27 07:55:51;;;;;;;;;32.25;30.00;;;;;;;;5031300;28;51284;-52
2022/04/27 07:58:16;;;;;;;;;30.50;29.50;;;;;;;;5031279;28;51243;-53
2022/04/27 08:00:41;;;;;;;;;32.75;31.00;;;;;;;;5031919;28;51969;-52
2022/04/27 08:03:07;;;;;;;;;38.00;32.00;;;;;;;;5033137;28;51009;-53
2022/04/27 08:05:32;;;;;;;;;35.75;32.50;;;;;;;;5029825;28;51313;-52
2022/04/27 08:07:57;;;;;;;;;34.25;32.00;;;;;;;;5032002;28;51390;-51
2022/04/27 08:10:22;;;;;;;;;31.75;30.25;;;;;;;;5031606;28;51882;-51
2022/04/27 08:12:49;;;;;;;;;34.50;31.00;;;;;;;;5031232;28;51264;-50
2022/04/27 08:15:15;;;;;;;;;34.75;30.25;;;;;;;;5028600;28;51148;-48
2022/04/27 08:17:57;;;;;;;;;35.50;31.75;;;;;;;;5032273;28;51247;-49
2022/04/27 08:23:16;;;;;;;;;34.25;31.00;;;;;;;;5028957;28;51371;-53
2022/04/27 08:25:41;;;;;;;;;34.00;32.00;;;;;;;;5026297;28;51131;-52
2022/04/27 08:28:07;;;;;;;;;34.25;32.00;;;;;;;;5027730;28;51329;-51
2022/04/27 08:30:33;;;;;;;;;33.75;31.50;;;;;;;;5029995;28;52138;-52
2022/04/27 08:33:02;;;;;;;;;39.25;34.75;;;;;;;;5032748;28;51136;-51
2022/04/27 08:35:27;;;;;;;;;33.25;31.50;;;;;;;;5029425;28;51129;-54
2022/04/27 08:37:53;;;;;;;;;38.25;33.75;;;;;;;;5032140;28;51254;-52
2022/04/27 08:40:19;;;;;;;;;31.00;29.75;;;;;;;;5030676;28;52064;-50
2022/04/27 08:42:44;;;;;;;;;33.75;32.00;;;;;;;;5033475;28;51353;-53
2022/04/27 08:45:09;;;;;;;;;34.25;31.75;;;;;;;;5029542;28;51366;-54
2022/04/27 08:47:34;;;;;;;;;32.00;29.50;;;;;;;;5030939;28;51101;-56
2022/04/27 08:50:09;;;;;;;;;36.75;33.75;;;;;;;;5039369;28;52055;-53
2022/04/27 08:52:34;;;;;;;;;42.75;35.00;;;;;;;;5035720;28;51069;-54
2022/04/27 08:55:00;;;;;;;;;37.75;33.25;;;;;;;;5033597;28;51079;-53
2022/04/27 08:57:26;;;;;;;;;38.75;33.00;;;;;;;;5030049;28;51346;-50
2022/04/27 08:59:51;;;;;;;;;36.00;32.75;;;;;;;;5032773;28;51155;-52
2022/04/27 09:02:26;;;;;;;;;39.00;34.00;;;;;;;;5028567;28;51108;-53
2022/04/27 09:05:10;;;;;;;;;35.75;31.75;;;;;;;;5031095;28;51173;-52
2022/04/27 09:07:40;;;;;;;;;35.25;32.25;;;;;;;;5028813;28;51336;-52
2022/04/27 09:10:07;;;;;;;;;32.75;28.25;;;;;;;;5038954;28;53454;-53
2022/04/27 09:12:32;;;;;;;;;36.75;32.25;;;;;;;;5030048;28;51086;-53
2022/04/27 09:15:05;;;;;;;;;33.00;31.75;;;;;;;;5027494;28;51100;-51
2022/04/27 09:23:03;;;;;;;;;38.25;33.25;;;;;;;;5029490;28;51202;-54
2022/04/27 09:25:35;;;;;;;;;31.50;30.50;;;;;;;;5030654;28;51778;-53
2022/04/27 09:28:02;;;;;;;;;37.75;32.25;;;;;;;;5030547;28;52193;-53
2022/04/27 09:30:28;;;;;;;;;36.50;33.00;;;;;;;;5010553;28;52731;-55
2022/04/27 09:32:53;;;;;;;;;35.75;32.00;;;;;;;;5029178;28;50993;-54
2022/04/27 09:35:32;;;;;;;;;31.00;30.00;;;;;;;;5025639;28;51168;-53
2022/04/27 09:38:10;;;;;;;;;37.00;33.25;;;;;;;;5030473;28;50975;-51
2022/04/27 09:40:42;;;;;;;;;38.00;34.50;;;;;;;;5019896;28;51843;-51
2022/04/27 09:43:09;;;;;;;;;29.00;28.00;;;;;;;;5027029;28;51190;-53
2022/04/27 09:45:34;;;;;;;;;37.50;34.00;;;;;;;;5029937;28;51232;-51
2022/04/27 09:48:02;;;;;;;;;35.50;32.50;;;;;;;;5022626;28;51121;-54
2022/04/27 09:50:46;;;;;;;;;32.00;30.50;;;;;;;;5027643;28;52309;-53
2022/04/27 09:53:11;;;;;;;;;42.50;36.00;;;;;;;;5030162;28;50930;-54
2022/04/27 09:55:43;;;;;;;;;39.40;35.00;;;;;;;;5029201;28;50943;-54
2022/04/27 09:58:11;;;;;;;;;37.25;33.25;;;;;;;;5026840;28;50931;-55
2022/04/27 10:00:36;;;;;;;;;41.00;33.00;;;;;;;;5026937;28;51628;-51
2022/04/27 10:03:02;;;;;;;;;34.50;32.00;;;;;;;;5023251;28;50874;-55
2022/04/27 10:05:28;;;;;;;;;41.75;36.25;;;;;;;;5025475;28;51574;-53
2022/04/27 10:07:54;;;;;;;;;38.00;34.25;;;;;;;;5028708;28;51391;-53
2022/04/27 10:10:19;;;;;;;;;38.00;33.25;;;;;;;;5029224;28;51261;-52
2022/04/27 10:12:46;;;;;;;;;37.50;34.25;;;;;;;;5028511;28;51110;-53
2022/04/27 10:15:11;;;;;;;;;39.25;33.25;;;;;;;;5034217;28;51147;-51
2022/04/27 10:17:36;;;;;;;;;38.75;33.50;;;;;;;;5029481;28;50992;-52
2022/04/27 10:20:22;;;;;;;;;38.00;32.75;;;;;;;;5035973;28;51165;-51
2022/04/27 10:22:47;;;;;;;;;33.25;31.25;;;;;;;;5027052;28;51204;-51
2022/04/27 10:25:13;;;;;;;;;36.00;32.00;;;;;;;;5030163;28;51139;-50
2022/04/27 10:27:42;;;;;;;;;33.00;31.00;;;;;;;;5026048;28;51110;-51
2022/04/27 10:30:11;;;;;;;;;33.75;31.75;;;;;;;;5029752;28;51976;-54
2022/04/27 10:32:43;;;;;;;;;33.50;30.50;;;;;;;;5026720;28;51255;-52
2022/04/27 10:35:11;;;;;;;;;38.25;34.25;;;;;;;;5030091;28;51142;-50
2022/04/27 10:37:47;;;;;;;;;34.50;32.00;;;;;;;;5025434;28;51036;-54
2022/04/27 10:40:31;;;;;;;;;35.50;30.25;;;;;;;;5029950;28;51792;-54
2022/04/27 10:43:09;;;;;;;;;35.00;32.75;;;;;;;;5026491;28;51171;-51
2022/04/27 10:45:39;;;;;;;;;29.25;27.75;;;;;;;;5023172;28;51432;-55
2022/04/27 10:48:06;;;;;;;;;27.00;25.25;;;;;;;;5029186;28;51334;-52
2022/04/27 10:50:33;;;;;;;;;31.50;30.25;;;;;;;;5027396;28;51159;-54
2022/04/27 10:53:13;;;;;;;;;30.50;29.50;;;;;;;;5030334;28;51080;-52
2022/04/27 10:55:42;;;;;;;;;30.25;29.00;;;;;;;;5040937;28;50911;-54
2022/04/27 10:58:28;;;;;;;;;28.50;28.00;;;;;;;;5030908;28;51243;-54
2022/04/27 11:01:02;;;;;;;;;32.75;30.00;;;;;;;;5022517;28;51957;-53
2022/04/27 11:03:27;;;;;;;;;33.25;31.50;;;;;;;;5034234;28;51262;-53
2022/04/27 11:05:56;;;;;;;;;31.25;28.75;;;;;;;;5034843;28;51045;-53
2022/04/27 11:08:21;;;;;;;;;31.25;30.25;;;;;;;;5034779;28;51149;-54
2022/04/27 11:10:47;;;;;;;;;28.75;28.25;;;;;;;;5034643;28;51019;-54
2022/04/27 11:13:12;;;;;;;;;28.00;26.25;;;;;;;;5034164;28;51026;-55
2022/04/27 11:15:38;;;;;;;;;24.00;22.25;;;;;;;;5034290;28;51054;-55
2022/04/27 11:18:03;;;;;;;;;23.50;23.25;;;;;;;;5032664;28;51327;-53
2022/04/27 11:20:36;;;;;;;;;23.75;22.50;;;;;;;;5034018;28;51822;-55
2022/04/27 11:23:07;;;;;;;;;25.25;24.75;;;;;;;;5034363;28;50997;-51
2022/04/27 11:25:33;;;;;;;;;26.75;25.25;;;;;;;;5033724;28;51012;-54
2022/04/27 11:27:59;;;;;;;;;26.00;26.00;;;;;;;;5034265;28;50960;-54
2022/04/27 11:30:25;;;;;;;;;27.00;25.75;;;;;;;;5033106;28;52166;-54
2022/04/27 11:32:52;;;;;;;;;27.00;24.75;;;;;;;;5033753;28;51018;-53
2022/04/27 11:35:18;;;;;;;;;24.50;24.25;;;;;;;;5032388;28;51078;-52
2022/04/27 11:37:43;;;;;;;;;25.25;23.75;;;;;;;;5034247;28;51004;-52
2022/04/27 11:40:15;;;;;;;;;26.00;25.00;;;;;;;;5032562;28;54260;-52
2022/04/27 11:42:47;;;;;;;;;22.25;20.25;;;;;;;;5033907;28;51119;-53
2022/04/27 11:45:16;;;;;;;;;27.25;24.75;;;;;;;;5032715;28;51220;-53
2022/04/27 11:47:42;;;;;;;;;27.75;25.50;;;;;;;;5033014;28;50897;-54
2022/04/27 11:50:07;;;;;;;;;25.50;23.50;;;;;;;;5033930;28;50946;-54
2022/04/27 11:52:36;;;;;;;;;21.75;20.25;;;;;;;;5032738;28;50946;-53
2022/04/27 11:55:11;;;;;;;;;24.75;22.25;;;;;;;;5034216;28;51018;-52
2022/04/27 11:57:38;;;;;;;;;23.75;22.25;;;;;;;;5032528;28;51099;-51
2022/04/27 12:00:05;;;;;;;;;22.50;21.50;;;;;;;;5033444;28;52666;-54
2022/04/27 12:02:30;;;;;;;;;21.00;21.00;;;;;;;;5033397;28;50925;-53
2022/04/27 12:04:56;;;;;;;;;20.75;20.50;;;;;;;;5032129;28;50957;-54
2022/04/27 12:07:21;;;;;;;;;20.50;20.50;;;;;;;;5034068;28;51028;-54
2022/04/27 12:10:00;;;;;;;;;24.50;24.25;;;;;;;;5032736;28;51081;-54
2022/04/27 12:12:27;;;;;;;;;22.50;22.25;;;;;;;;5033536;28;51010;-53
2022/04/27 12:14:52;;;;;;;;;20.75;19.75;;;;;;;;5033620;28;51225;-53
2022/04/27 12:17:37;;;;;;;;;22.25;22.00;;;;;;;;5033686;28;50970;-54
2022/04/27 12:20:02;;;;;;;;;20.25;20.25;;;;;;;;5033115;28;51060;-55
2022/04/27 12:22:27;;;;;;;;;20.00;20.00;;;;;;;;5033430;28;51063;-54
2022/04/27 12:24:59;;;;;;;;;27.00;25.50;;;;;;;;5033531;28;51153;-53
2022/04/27 12:27:24;;;;;;;;;21.00;20.00;;;;;;;;5033625;28;51282;-52
2022/04/27 12:29:49;;;;;;;;;22.25;21.25;;;;;;;;5031678;28;53226;-52
2022/04/27 12:32:15;;;;;;;;;23.50;23.00;;;;;;;;5032780;28;51029;-54
2022/04/27 12:37:30;;;;;;;;;24.50;24.50;;;;;;;;5033775;28;50912;-53
2022/04/27 12:39:56;;;;;;;;;20.75;19.25;;;;;;;;5032956;28;52269;-54
2022/04/27 12:42:21;;;;;;;;;25.00;22.75;;;;;;;;5033773;28;50974;-55
2022/04/27 12:44:46;;;;;;;;;20.75;20.50;;;;;;;;5033361;28;51122;-54
2022/04/27 12:47:13;;;;;;;;;24.00;22.75;;;;;;;;5033121;28;51095;-52
2022/04/27 12:49:42;;;;;;;;;20.75;20.75;;;;;;;;5031473;28;52328;-54
2022/04/27 12:52:23;;;;;;;;;21.50;20.50;;;;;;;;5032679;28;51037;-51
2022/04/27 12:54:50;;;;;;;;;24.50;23.50;;;;;;;;5032638;28;51341;-51
2022/04/27 12:57:16;;;;;;;;;20.75;20.25;;;;;;;;5032911;28;51176;-53
2022/04/27 12:59:54;;;;;;;;;28.75;26.75;;;;;;;;5032575;28;51406;-51
2022/04/27 13:02:19;;;;;;;;;20.75;20.50;;;;;;;;5032382;28;50937;-54
2022/04/27 13:04:46;;;;;;;;;26.25;24.25;;;;;;;;5032225;28;51417;-50
2022/04/27 13:07:12;;;;;;;;;25.75;24.25;;;;;;;;5032728;28;51054;-53
2022/04/27 13:12:21;;;;;;;;;24.00;23.00;;;;;;;;5032288;28;50927;-54
2022/04/27 13:14:46;;;;;;;;;22.50;22.50;;;;;;;;5032149;28;50848;-53
2022/04/27 13:17:12;;;;;;;;;23.00;20.50;;;;;;;;5032886;28;51062;-50
2022/04/27 13:19:37;;;;;;;;;27.00;26.00;;;;;;;;5032054;28;50888;-52
2022/04/27 13:22:03;;;;;;;;;26.50;25.25;;;;;;;;5032234;28;50898;-53
2022/04/27 13:24:29;;;;;;;;;21.75;19.75;;;;;;;;5032162;28;50848;-55
2022/04/27 13:26:54;;;;;;;;;23.75;22.75;;;;;;;;5032447;28;51066;-53
2022/04/27 13:29:20;;;;;;;;;21.50;20.25;;;;;;;;5030723;28;53715;-52
2022/04/27 13:31:45;;;;;;;;;22.25;21.50;;;;;;;;5032134;28;50969;-53
2022/04/27 13:34:10;;;;;;;;;22.25;21.75;;;;;;;;5032400;28;51282;-53
2022/04/27 13:36:35;;;;;;;;;24.00;22.25;;;;;;;;5032767;28;51027;-53
2022/04/27 13:39:01;;;;;;;;;27.00;26.00;;;;;;;;5030340;28;53090;-52
2022/04/27 13:41:26;;;;;;;;;21.25;21.00;;;;;;;;5032629;28;51096;-53
2022/04/27 13:43:51;;;;;;;;;23.50;21.25;;;;;;;;5032191;28;51062;-53
2022/04/27 13:46:17;;;;;;;;;27.25;25.50;;;;;;;;5032384;28;51326;-54
2022/04/27 13:48:44;;;;;;;;;25.00;23.00;;;;;;;;5031665;28;52839;-54
2022/04/27 13:51:09;;;;;;;;;21.25;19.75;;;;;;;;5031032;28;51002;-52
2022/04/27 13:53:34;;;;;;;;;26.75;24.25;;;;;;;;5032147;28;50994;-53
2022/04/27 13:56:00;;;;;;;;;23.00;22.00;;;;;;;;5032296;28;51284;-53
2022/04/27 13:58:25;;;;;;;;;24.25;23.25;;;;;;;;5031291;28;51402;-51
2022/04/27 14:00:50;;;;;;;;;23.75;22.50;;;;;;;;5031550;28;51081;-51
2022/04/27 14:03:16;;;;;;;;;28.25;25.75;;;;;;;;5031795;28;51295;-53
2022/04/27 14:05:41;;;;;;;;;22.25;22.25;;;;;;;;5030899;28;51135;-55
2022/04/27 14:08:06;;;;;;;;;24.75;24.00;;;;;;;;5031517;28;51854;-52
2022/04/27 14:10:32;;;;;;;;;24.75;24.25;;;;;;;;5030227;28;51062;-53
2022/04/27 14:13:17;;;;;;;;;18.75;17.25;;;;;;;;5032084;28;50907;-52
2022/04/27 14:18:09;;;;;;;;;12.25;12.25;;;;;;;;5032110;28;50951;-52
2022/04/27 14:18:31;;;;;;;;;22.00;21.50;;;;;;;;5031464;28;52133;-52
2022/04/27 14:20:58;;;;;;;;;20.75;19.50;;;;;;;;5031460;28;51063;-54
2022/04/27 14:23:23;;;;;;;;;19.00;18.50;;;;;;;;5032087;28;51091;-54
2022/04/27 14:25:48;;;;;;;;;22.00;20.00;;;;;;;;5031850;28;50930;-51
2022/04/27 14:28:14;;;;;;;;;21.25;20.25;;;;;;;;5031742;28;52230;-54
2022/04/27 14:30:39;;;;;;;;;20.75;19.75;;;;;;;;5031266;28;51069;-54
2022/04/27 14:33:06;;;;;;;;;26.50;23.25;;;;;;;;5031745;28;51077;-52
2022/04/27 14:35:31;;;;;;;;;17.75;17.75;;;;;;;;5035865;28;50801;-54
2022/04/27 14:37:58;;;;;;;;;20.25;19.75;;;;;;;;5035254;28;52280;-54